sensor_id;sensor_type;location;lat;lon;timestamp;temperature;humidity
31765;DHT22;18338;53.240;8.798;2023-04-01T00:00:03;10.40;99.90
31765;DHT22;18338;53.240;8.798;2023-04-01T00:02:31;10.40;99.90
31765;DHT22;18338;53.240;8.798;2023-04-01T00:04:58;10.40;99.90
31765;DHT22;18338;53.240;8.798;2023-04-01T00:07:25;10.40;99.90
31765;DHT22;18338;53.240;8.798;2023-04-01T00:09:56;10.40;99.90
31765;DHT22;18338;53.240;8.798;2023-04-01T00:12:22;10.40;99.90
31765;DHT22;18338;53.240;8.798;2023-04-01T00:14:51;10.40;99.90
31765;DHT22;18338;53.240;8.798;2023-04-01T00:17:18;10.40;99.90
31765;DHT22;18338;53.240;8.798;2023-04-01T00:19:44;10.40;99.90
31765;DHT22;18338;53.240;8.798;2023-04-01T00:22:11;10.50;99.90
31765;DHT22;18338;53.240;8.798;2023-04-01T00:24:38;10.50;99.90
31765;DHT22;18338;53.240;8.798;2023-04-01T00:27:05;10.50;99.90
31765;DHT22;18338;53.240;8.798;2023-04-01T00:29:33;10.40;99.90
31765;DHT22;18338;53.240;8.798;2023-04-01T00:32:01;10.50;99.90
31765;DHT22;18338;53.240;8.798;2023-04-01T00:37:01;10.50;99.90
31765;DHT22;18338;53.240;8.798;2023-04-01T00:39:31;10.40;99.90
31765;DHT22;18338;53.240;8.798;2023-04-01T00:42:00;10.50;99.90
31765;DHT22;18338;53.240;8.798;2023-04-01T00:44:29;10.50;99.90
31765;DHT22;18338;53.240;8.798;2023-04-01T00:46:58;10.50;99.90
31765;DHT22;18338;53.240;8.798;2023-04-01T00:49:32;10.50;99.90
31765;DHT22;18338;53.240;8.798;2023-04-01T00:52:02;10.50;99.90
31765;DHT22;18338;53.240;8.798;2023-04-01T00:54:30;10.40;99.90
31765;DHT22;18338;53.240;8.798;2023-04-01T00:57:10;10.50;99.90
31765;DHT22;18338;53.240;8.798;2023-04-01T00:59:45;10.50;99.90
31765;DHT22;18338;53.240;8.798;2023-04-01T01:02:14;10.50;99.90
31765;DHT22;18338;53.240;8.798;2023-04-01T01:04:42;10.40;99.90
31765;DHT22;18338;53.240;8.798;2023-04-01T01:10:08;10.50;99.90
31765;DHT22;18338;53.240;8.798;2023-04-01T01:15:44;10.50;99.90
31765;DHT22;18338;53.240;8.798;2023-04-01T01:18:49;10.50;99.90
31765;DHT22;18338;53.240;8.798;2023-04-01T01:25:02;10.50;99.90
31765;DHT22;18338;53.240;8.798;2023-04-01T01:27:33;10.50;99.90
31765;DHT22;18338;53.240;8.798;2023-04-01T01:30:21;10.50;99.90
31765;DHT22;18338;53.240;8.798;2023-04-01T01:35:57;10.40;99.90
31765;DHT22;18338;53.240;8.798;2023-04-01T01:38:28;10.50;99.90
31765;DHT22;18338;53.240;8.798;2023-04-01T01:40:57;10.50;99.90
31765;DHT22;18338;53.240;8.798;2023-04-01T01:43:47;10.50;99.90
31765;DHT22;18338;53.240;8.798;2023-04-01T01:46:19;10.50;99.90
31765;DHT22;18338;53.240;8.798;2023-04-01T01:48:49;10.50;99.90
31765;DHT22;18338;53.240;8.798;2023-04-01T01:51:18;10.50;99.90
31765;DHT22;18338;53.240;8.798;2023-04-01T01:53:46;10.50;99.90
31765;DHT22;18338;53.240;8.798;2023-04-01T01:56:13;10.50;99.90
31765;DHT22;18338;53.240;8.798;2023-04-01T01:58:45;10.50;99.90
31765;DHT22;18338;53.240;8.798;2023-04-01T02:01:16;10.50;99.90
31765;DHT22;18338;53.240;8.798;2023-04-01T02:03:45;10.50;99.90
31765;DHT22;18338;53.240;8.798;2023-04-01T02:06:15;10.50;99.90
31765;DHT22;18338;53.240;8.798;2023-04-01T02:08:54;10.50;99.90
31765;DHT22;18338;53.240;8.798;2023-04-01T02:11:46;10.50;99.90
31765;DHT22;18338;53.240;8.798;2023-04-01T02:14:20;10.50;99.90
31765;DHT22;18338;53.240;8.798;2023-04-01T02:17:12;10.50;99.90
31765;DHT22;18338;53.240;8.798;2023-04-01T02:19:51;10.50;99.90
31765;DHT22;18338;53.240;8.798;2023-04-01T02:22:22;10.50;99.90
31765;DHT22;18338;53.240;8.798;2023-04-01T02:24:52;10.50;99.90
31765;DHT22;18338;53.240;8.798;2023-04-01T02:27:20;10.50;99.90
31765;DHT22;18338;53.240;8.798;2023-04-01T02:29:47;10.50;99.90
31765;DHT22;18338;53.240;8.798;2023-04-01T02:32:14;10.50;99.90
31765;DHT22;18338;53.240;8.798;2023-04-01T02:34:41;10.50;99.90
31765;DHT22;18338;53.240;8.798;2023-04-01T02:37:11;10.50;99.90
31765;DHT22;18338;53.240;8.798;2023-04-01T02:39:37;10.50;99.90
31765;DHT22;18338;53.240;8.798;2023-04-01T02:42:04;10.50;99.90
31765;DHT22;18338;53.240;8.798;2023-04-01T02:44:31;10.50;99.90
31765;DHT22;18338;53.240;8.798;2023-04-01T02:46:58;10.40;99.90
31765;DHT22;18338;53.240;8.798;2023-04-01T02:49:25;10.50;99.90
31765;DHT22;18338;53.240;8.798;2023-04-01T02:51:52;10.40;99.90
31765;DHT22;18338;53.240;8.798;2023-04-01T02:54:19;10.50;99.90
31765;DHT22;18338;53.240;8.798;2023-04-01T02:56:47;10.50;99.90
31765;DHT22;18338;53.240;8.798;2023-04-01T02:59:13;10.50;99.90
31765;DHT22;18338;53.240;8.798;2023-04-01T03:01:40;10.50;99.90
31765;DHT22;18338;53.240;8.798;2023-04-01T03:04:07;10.50;99.90
31765;DHT22;18338;53.240;8.798;2023-04-01T03:06:34;10.50;99.90
31765;DHT22;18338;53.240;8.798;2023-04-01T03:09:01;10.50;99.90
31765;DHT22;18338;53.240;8.798;2023-04-01T03:11:28;10.50;99.90
31765;DHT22;18338;53.240;8.798;2023-04-01T03:13:55;10.50;99.90
31765;DHT22;18338;53.240;8.798;2023-04-01T03:16:22;10.40;99.90
31765;DHT22;18338;53.240;8.798;2023-04-01T03:18:49;10.50;99.90
31765;DHT22;18338;53.240;8.798;2023-04-01T03:21:20;10.50;99.90
31765;DHT22;18338;53.240;8.798;2023-04-01T03:23:47;10.50;99.90
31765;DHT22;18338;53.240;8.798;2023-04-01T03:26:14;10.50;99.90
31765;DHT22;18338;53.240;8.798;2023-04-01T03:28:41;10.40;99.90
31765;DHT22;18338;53.240;8.798;2023-04-01T03:31:08;10.50;99.90
31765;DHT22;18338;53.240;8.798;2023-04-01T03:33:35;10.50;99.90
31765;DHT22;18338;53.240;8.798;2023-04-01T03:36:02;10.40;99.90
31765;DHT22;18338;53.240;8.798;2023-04-01T03:38:33;10.40;99.90
31765;DHT22;18338;53.240;8.798;2023-04-01T03:41:01;10.50;99.90
31765;DHT22;18338;53.240;8.798;2023-04-01T03:43:28;10.40;99.90
31765;DHT22;18338;53.240;8.798;2023-04-01T03:45:55;10.50;99.90
31765;DHT22;18338;53.240;8.798;2023-04-01T03:48:24;10.50;99.90
31765;DHT22;18338;53.240;8.798;2023-04-01T03:50:52;10.50;99.90
31765;DHT22;18338;53.240;8.798;2023-04-01T03:53:19;10.50;99.90
31765;DHT22;18338;53.240;8.798;2023-04-01T03:55:46;10.50;99.90
31765;DHT22;18338;53.240;8.798;2023-04-01T03:58:13;10.50;99.90
31765;DHT22;18338;53.240;8.798;2023-04-01T04:00:40;10.50;99.90
31765;DHT22;18338;53.240;8.798;2023-04-01T04:03:07;10.50;99.90
31765;DHT22;18338;53.240;8.798;2023-04-01T04:05:34;10.50;99.90
31765;DHT22;18338;53.240;8.798;2023-04-01T04:08:02;10.50;99.90
31765;DHT22;18338;53.240;8.798;2023-04-01T04:10:29;10.40;99.90
31765;DHT22;18338;53.240;8.798;2023-04-01T04:12:56;10.40;99.90
31765;DHT22;18338;53.240;8.798;2023-04-01T04:15:23;10.40;99.90
31765;DHT22;18338;53.240;8.798;2023-04-01T04:17:49;10.40;99.90
31765;DHT22;18338;53.240;8.798;2023-04-01T04:20:18;10.40;99.90
31765;DHT22;18338;53.240;8.798;2023-04-01T04:22:44;10.40;99.90
31765;DHT22;18338;53.240;8.798;2023-04-01T04:25:11;10.40;99.90
31765;DHT22;18338;53.240;8.798;2023-04-01T04:27:38;10.40;99.90
31765;DHT22;18338;53.240;8.798;2023-04-01T04:30:06;10.40;99.90
31765;DHT22;18338;53.240;8.798;2023-04-01T04:32:33;10.40;99.90
31765;DHT22;18338;53.240;8.798;2023-04-01T04:35:00;10.40;99.90
31765;DHT22;18338;53.240;8.798;2023-04-01T04:37:27;10.40;99.90
31765;DHT22;18338;53.240;8.798;2023-04-01T04:39:54;10.30;99.90
31765;DHT22;18338;53.240;8.798;2023-04-01T04:42:20;10.40;99.90
31765;DHT22;18338;53.240;8.798;2023-04-01T04:44:47;10.40;99.90
31765;DHT22;18338;53.240;8.798;2023-04-01T04:47:14;10.40;99.90
31765;DHT22;18338;53.240;8.798;2023-04-01T04:49:41;10.40;99.90
31765;DHT22;18338;53.240;8.798;2023-04-01T04:52:07;10.30;99.90
31765;DHT22;18338;53.240;8.798;2023-04-01T04:54:35;10.30;99.90
31765;DHT22;18338;53.240;8.798;2023-04-01T04:57:02;10.30;99.90
31765;DHT22;18338;53.240;8.798;2023-04-01T04:59:29;10.30;99.90
31765;DHT22;18338;53.240;8.798;2023-04-01T05:01:56;10.30;99.90
31765;DHT22;18338;53.240;8.798;2023-04-01T05:04:24;10.30;99.90
31765;DHT22;18338;53.240;8.798;2023-04-01T05:06:50;10.30;99.90
31765;DHT22;18338;53.240;8.798;2023-04-01T05:09:18;10.30;99.90
31765;DHT22;18338;53.240;8.798;2023-04-01T05:11:45;10.30;99.90
31765;DHT22;18338;53.240;8.798;2023-04-01T05:14:14;10.30;99.90
31765;DHT22;18338;53.240;8.798;2023-04-01T05:16:42;10.30;99.90
31765;DHT22;18338;53.240;8.798;2023-04-01T05:19:09;10.30;99.90
31765;DHT22;18338;53.240;8.798;2023-04-01T05:21:36;10.40;99.90
31765;DHT22;18338;53.240;8.798;2023-04-01T05:24:02;10.40;99.90
31765;DHT22;18338;53.240;8.798;2023-04-01T05:26:29;10.40;99.90
31765;DHT22;18338;53.240;8.798;2023-04-01T05:28:57;10.40;99.90
31765;DHT22;18338;53.240;8.798;2023-04-01T05:31:23;10.40;99.90
31765;DHT22;18338;53.240;8.798;2023-04-01T05:33:51;10.40;99.90
31765;DHT22;18338;53.240;8.798;2023-04-01T05:36:17;10.40;99.90
31765;DHT22;18338;53.240;8.798;2023-04-01T05:38:44;10.40;99.90
31765;DHT22;18338;53.240;8.798;2023-04-01T05:41:15;10.40;99.90
31765;DHT22;18338;53.240;8.798;2023-04-01T05:43:42;10.40;99.90
31765;DHT22;18338;53.240;8.798;2023-04-01T05:46:09;10.40;99.90
31765;DHT22;18338;53.240;8.798;2023-04-01T05:48:36;10.40;99.90
31765;DHT22;18338;53.240;8.798;2023-04-01T05:51:03;10.40;99.90
31765;DHT22;18338;53.240;8.798;2023-04-01T05:53:31;10.50;99.90
31765;DHT22;18338;53.240;8.798;2023-04-01T05:56:02;10.50;99.90
31765;DHT22;18338;53.240;8.798;2023-04-01T05:58:29;10.50;99.90
31765;DHT22;18338;53.240;8.798;2023-04-01T06:01:05;10.50;99.90
31765;DHT22;18338;53.240;8.798;2023-04-01T06:03:38;10.60;99.90
31765;DHT22;18338;53.240;8.798;2023-04-01T06:06:23;10.60;99.90
31765;DHT22;18338;53.240;8.798;2023-04-01T06:08:50;10.60;99.90
31765;DHT22;18338;53.240;8.798;2023-04-01T06:11:37;10.60;99.90
31765;DHT22;18338;53.240;8.798;2023-04-01T06:16:45;10.60;99.90
31765;DHT22;18338;53.240;8.798;2023-04-01T06:19:28;10.60;99.90
31765;DHT22;18338;53.240;8.798;2023-04-01T06:22:21;10.60;99.90
31765;DHT22;18338;53.240;8.798;2023-04-01T06:36:15;11.10;99.90
31765;DHT22;18338;53.240;8.798;2023-04-01T06:53:16;11.40;99.90
31765;DHT22;18338;53.240;8.798;2023-04-01T06:55:57;11.30;99.90
31765;DHT22;18338;53.240;8.798;2023-04-01T06:58:40;11.40;99.90
31765;DHT22;18338;53.240;8.798;2023-04-01T07:01:13;11.40;99.90
31765;DHT22;18338;53.240;8.798;2023-04-01T07:06:35;11.70;99.90
31765;DHT22;18338;53.240;8.798;2023-04-01T07:09:08;11.70;99.90
31765;DHT22;18338;53.240;8.798;2023-04-01T07:11:38;11.70;99.90
31765;DHT22;18338;53.240;8.798;2023-04-01T07:14:13;11.80;99.90
31765;DHT22;18338;53.240;8.798;2023-04-01T07:16:58;11.90;99.90
31765;DHT22;18338;53.240;8.798;2023-04-01T07:19:58;12.10;99.90
31765;DHT22;18338;53.240;8.798;2023-04-01T07:22:35;12.30;99.90
31765;DHT22;18338;53.240;8.798;2023-04-01T07:25:29;12.60;99.90
31765;DHT22;18338;53.240;8.798;2023-04-01T07:28:06;12.50;99.90
31765;DHT22;18338;53.240;8.798;2023-04-01T07:36:06;12.40;99.90
31765;DHT22;18338;53.240;8.798;2023-04-01T07:38:58;12.40;99.90
31765;DHT22;18338;53.240;8.798;2023-04-01T07:44:39;12.00;99.90
31765;DHT22;18338;53.240;8.798;2023-04-01T07:47:34;12.20;99.90
31765;DHT22;18338;53.240;8.798;2023-04-01T07:52:56;12.30;99.90
31765;DHT22;18338;53.240;8.798;2023-04-01T07:55:45;12.10;99.90
31765;DHT22;18338;53.240;8.798;2023-04-01T08:04:04;12.00;99.90
31765;DHT22;18338;53.240;8.798;2023-04-01T08:09:25;11.90;99.90
31765;DHT22;18338;53.240;8.798;2023-04-01T08:14:44;12.10;99.90
31765;DHT22;18338;53.240;8.798;2023-04-01T08:17:21;12.20;99.90
31765;DHT22;18338;53.240;8.798;2023-04-01T08:22:53;12.20;99.90
31765;DHT22;18338;53.240;8.798;2023-04-01T08:25:27;12.20;99.90
31765;DHT22;18338;53.240;8.798;2023-04-01T08:28:24;12.10;99.90
31765;DHT22;18338;53.240;8.798;2023-04-01T08:33:54;12.10;99.90
31765;DHT22;18338;53.240;8.798;2023-04-01T08:36:26;12.00;99.90
31765;DHT22;18338;53.240;8.798;2023-04-01T08:38:59;11.90;99.90
31765;DHT22;18338;53.240;8.798;2023-04-01T08:50:53;12.10;99.90
31765;DHT22;18338;53.240;8.798;2023-04-01T08:53:41;12.10;99.90
31765;DHT22;18338;53.240;8.798;2023-04-01T08:56:26;12.10;99.90
31765;DHT22;18338;53.240;8.798;2023-04-01T09:10:11;11.70;99.90
31765;DHT22;18338;53.240;8.798;2023-04-01T09:18:42;10.50;99.90
31765;DHT22;18338;53.240;8.798;2023-04-01T09:21:23;10.30;99.90
31765;DHT22;18338;53.240;8.798;2023-04-01T09:24:02;10.10;99.90
31765;DHT22;18338;53.240;8.798;2023-04-01T09:32:25;9.90;99.90
31765;DHT22;18338;53.240;8.798;2023-04-01T09:51:44;9.60;99.90
31765;DHT22;18338;53.240;8.798;2023-04-01T10:12:06;9.80;99.90
31765;DHT22;18338;53.240;8.798;2023-04-01T10:34:56;9.60;99.90
31765;DHT22;18338;53.240;8.798;2023-04-01T10:37:56;9.60;99.90
31765;DHT22;18338;53.240;8.798;2023-04-01T10:40:35;9.50;99.90
31765;DHT22;18338;53.240;8.798;2023-04-01T10:43:26;9.50;99.90
31765;DHT22;18338;53.240;8.798;2023-04-01T11:20:40;8.90;99.90
31765;DHT22;18338;53.240;8.798;2023-04-01T11:23:31;9.00;99.90
31765;DHT22;18338;53.240;8.798;2023-04-01T11:29:09;9.10;99.90
31765;DHT22;18338;53.240;8.798;2023-04-01T11:37:44;8.90;99.90
31765;DHT22;18338;53.240;8.798;2023-04-01T11:40:39;9.00;99.90
31765;DHT22;18338;53.240;8.798;2023-04-01T11:46:15;9.00;99.90
31765;DHT22;18338;53.240;8.798;2023-04-01T11:51:50;8.90;99.90
31765;DHT22;18338;53.240;8.798;2023-04-01T11:54:43;8.90;99.90
31765;DHT22;18338;53.240;8.798;2023-04-01T11:57:42;8.80;99.90
31765;DHT22;18338;53.240;8.798;2023-04-01T12:09:25;8.60;99.90
31765;DHT22;18338;53.240;8.798;2023-04-01T12:12:19;8.60;99.90
31765;DHT22;18338;53.240;8.798;2023-04-01T12:15:22;8.70;99.90
31765;DHT22;18338;53.240;8.798;2023-04-01T12:30:02;8.50;99.90
31765;DHT22;18338;53.240;8.798;2023-04-01T12:35:21;8.70;99.90
31765;DHT22;18338;53.240;8.798;2023-04-01T12:40:50;8.60;99.90
31765;DHT22;18338;53.240;8.798;2023-04-01T12:52:00;8.70;99.90
31765;DHT22;18338;53.240;8.798;2023-04-01T13:00:40;8.70;99.90
31765;DHT22;18338;53.240;8.798;2023-04-01T13:06:16;8.70;99.90
31765;DHT22;18338;53.240;8.798;2023-04-01T13:28:59;8.70;99.90
31765;DHT22;18338;53.240;8.798;2023-04-01T13:55:08;8.50;99.90
31765;DHT22;18338;53.240;8.798;2023-04-01T14:00:55;8.50;99.90
31765;DHT22;18338;53.240;8.798;2023-04-01T14:11:25;8.40;99.90
31765;DHT22;18338;53.240;8.798;2023-04-01T14:17:09;8.40;99.90
31765;DHT22;18338;53.240;8.798;2023-04-01T14:22:25;8.10;99.90
31765;DHT22;18338;53.240;8.798;2023-04-01T14:33:46;7.90;99.90
31765;DHT22;18338;53.240;8.798;2023-04-01T14:36:37;7.90;99.90
31765;DHT22;18338;53.240;8.798;2023-04-01T14:47:51;7.80;99.90
31765;DHT22;18338;53.240;8.798;2023-04-01T14:50:21;7.80;99.90
31765;DHT22;18338;53.240;8.798;2023-04-01T14:58:12;7.70;99.90
31765;DHT22;18338;53.240;8.798;2023-04-01T15:09:16;7.60;99.90
31765;DHT22;18338;53.240;8.798;2023-04-01T15:14:51;7.50;99.90
31765;DHT22;18338;53.240;8.798;2023-04-01T15:17:39;7.40;99.90
31765;DHT22;18338;53.240;8.798;2023-04-01T15:20:19;7.40;99.90
31765;DHT22;18338;53.240;8.798;2023-04-01T15:23:16;7.50;99.90
31765;DHT22;18338;53.240;8.798;2023-04-01T15:26:05;7.50;99.90
31765;DHT22;18338;53.240;8.798;2023-04-01T15:31:34;7.30;99.90
31765;DHT22;18338;53.240;8.798;2023-04-01T15:53:37;7.10;99.90
31765;DHT22;18338;53.240;8.798;2023-04-01T16:02:47;7.20;99.90
31765;DHT22;18338;53.240;8.798;2023-04-01T16:10:30;7.10;99.90
31765;DHT22;18338;53.240;8.798;2023-04-01T16:16:39;7.00;99.90
31765;DHT22;18338;53.240;8.798;2023-04-01T16:19:37;7.00;99.90
31765;DHT22;18338;53.240;8.798;2023-04-01T16:25:20;6.90;99.90
31765;DHT22;18338;53.240;8.798;2023-04-01T16:30:44;7.00;99.90
31765;DHT22;18338;53.240;8.798;2023-04-01T16:33:34;6.90;99.90
31765;DHT22;18338;53.240;8.798;2023-04-01T16:36:13;6.90;99.90
31765;DHT22;18338;53.240;8.798;2023-04-01T16:38:59;6.90;99.90
31765;DHT22;18338;53.240;8.798;2023-04-01T16:44:29;6.90;99.90
31765;DHT22;18338;53.240;8.798;2023-04-01T16:46:59;6.80;99.90
31765;DHT22;18338;53.240;8.798;2023-04-01T16:49:37;6.80;99.90
31765;DHT22;18338;53.240;8.798;2023-04-01T16:54:48;6.70;99.90
31765;DHT22;18338;53.240;8.798;2023-04-01T17:00:25;6.70;99.90
31765;DHT22;18338;53.240;8.798;2023-04-01T17:03:12;6.70;99.90
31765;DHT22;18338;53.240;8.798;2023-04-01T17:11:50;6.50;99.90
31765;DHT22;18338;53.240;8.798;2023-04-01T17:23:01;6.30;99.90
31765;DHT22;18338;53.240;8.798;2023-04-01T17:28:25;6.30;99.90
31765;DHT22;18338;53.240;8.798;2023-04-01T17:42:21;6.10;99.90
31765;DHT22;18338;53.240;8.798;2023-04-01T17:48:53;6.10;99.90
31765;DHT22;18338;53.240;8.798;2023-04-01T17:51:12;6.10;99.90
31765;DHT22;18338;53.240;8.798;2023-04-01T17:54:05;6.00;99.90
31765;DHT22;18338;53.240;8.798;2023-04-01T17:59:55;6.00;99.90
31765;DHT22;18338;53.240;8.798;2023-04-01T18:05:30;6.00;99.90
31765;DHT22;18338;53.240;8.798;2023-04-01T18:08:23;6.00;99.90
31765;DHT22;18338;53.240;8.798;2023-04-01T18:22:43;5.90;99.90
31765;DHT22;18338;53.240;8.798;2023-04-01T18:25:37;5.90;99.90
31765;DHT22;18338;53.240;8.798;2023-04-01T18:44:56;5.70;99.90
31765;DHT22;18338;53.240;8.798;2023-04-01T18:47:43;5.70;99.90
31765;DHT22;18338;53.240;8.798;2023-04-01T18:53:23;5.60;99.90
31765;DHT22;18338;53.240;8.798;2023-04-01T18:55:56;5.60;99.90
31765;DHT22;18338;53.240;8.798;2023-04-01T19:01:42;5.60;99.90
31765;DHT22;18338;53.240;8.798;2023-04-01T19:06:50;5.60;99.90
31765;DHT22;18338;53.240;8.798;2023-04-01T19:09:25;5.50;99.90
31765;DHT22;18338;53.240;8.798;2023-04-01T19:12:05;5.50;99.90
31765;DHT22;18338;53.240;8.798;2023-04-01T19:15:19;5.50;99.90
31765;DHT22;18338;53.240;8.798;2023-04-01T19:17:44;5.50;99.90
31765;DHT22;18338;53.240;8.798;2023-04-01T19:20:25;5.40;99.90
31765;DHT22;18338;53.240;8.798;2023-04-01T19:25:55;5.40;99.90
31765;DHT22;18338;53.240;8.798;2023-04-01T19:28:40;5.40;99.90
31765;DHT22;18338;53.240;8.798;2023-04-01T19:31:35;5.50;99.90
31765;DHT22;18338;53.240;8.798;2023-04-01T19:34:22;5.40;99.90
31765;DHT22;18338;53.240;8.798;2023-04-01T19:40:29;5.40;99.90
31765;DHT22;18338;53.240;8.798;2023-04-01T19:46:02;5.40;99.90
31765;DHT22;18338;53.240;8.798;2023-04-01T20:00:21;5.30;99.90
31765;DHT22;18338;53.240;8.798;2023-04-01T20:03:04;5.20;99.90
31765;DHT22;18338;53.240;8.798;2023-04-01T20:05:51;5.20;99.90
31765;DHT22;18338;53.240;8.798;2023-04-01T20:08:28;5.20;99.90
31765;DHT22;18338;53.240;8.798;2023-04-01T20:11:19;5.20;99.90
31765;DHT22;18338;53.240;8.798;2023-04-01T20:16:22;5.20;99.90
31765;DHT22;18338;53.240;8.798;2023-04-01T20:18:52;5.10;99.90
31765;DHT22;18338;53.240;8.798;2023-04-01T20:21:45;5.10;99.90
31765;DHT22;18338;53.240;8.798;2023-04-01T20:24:42;5.00;99.90
31765;DHT22;18338;53.240;8.798;2023-04-01T20:41:30;4.90;99.90
31765;DHT22;18338;53.240;8.798;2023-04-01T20:43:52;4.90;99.90
31765;DHT22;18338;53.240;8.798;2023-04-01T20:46:43;4.90;99.90
31765;DHT22;18338;53.240;8.798;2023-04-01T20:52:24;4.90;99.90
31765;DHT22;18338;53.240;8.798;2023-04-01T20:58:08;4.80;99.90
31765;DHT22;18338;53.240;8.798;2023-04-01T21:01:13;4.80;99.90
31765;DHT22;18338;53.240;8.798;2023-04-01T21:03:48;4.80;99.90
31765;DHT22;18338;53.240;8.798;2023-04-01T21:12:18;4.70;99.90
31765;DHT22;18338;53.240;8.798;2023-04-01T21:15:11;4.60;99.90
31765;DHT22;18338;53.240;8.798;2023-04-01T21:23:16;4.40;99.90
31765;DHT22;18338;53.240;8.798;2023-04-01T21:28:35;4.10;99.90
31765;DHT22;18338;53.240;8.798;2023-04-01T21:31:41;3.90;99.90
31765;DHT22;18338;53.240;8.798;2023-04-01T21:37:41;3.60;99.90
31765;DHT22;18338;53.240;8.798;2023-04-01T21:40:39;3.50;99.90
31765;DHT22;18338;53.240;8.798;2023-04-01T21:57:42;3.00;99.90
31765;DHT22;18338;53.240;8.798;2023-04-01T22:00:18;3.00;99.90
31765;DHT22;18338;53.240;8.798;2023-04-01T22:06:28;3.00;99.90
31765;DHT22;18338;53.240;8.798;2023-04-01T22:12:01;2.80;99.90
31765;DHT22;18338;53.240;8.798;2023-04-01T22:14:57;2.80;99.90
31765;DHT22;18338;53.240;8.798;2023-04-01T22:20:12;2.70;99.90
31765;DHT22;18338;53.240;8.798;2023-04-01T22:26:33;2.60;99.90
31765;DHT22;18338;53.240;8.798;2023-04-01T22:29:16;2.60;99.90
31765;DHT22;18338;53.240;8.798;2023-04-01T22:31:55;2.60;99.90
31765;DHT22;18338;53.240;8.798;2023-04-01T22:40:12;2.50;99.90
31765;DHT22;18338;53.240;8.798;2023-04-01T22:42:46;2.40;99.90
31765;DHT22;18338;53.240;8.798;2023-04-01T22:45:39;2.30;99.90
31765;DHT22;18338;53.240;8.798;2023-04-01T22:48:26;2.30;99.90
31765;DHT22;18338;53.240;8.798;2023-04-01T22:56:16;2.30;99.90
31765;DHT22;18338;53.240;8.798;2023-04-01T22:58:50;2.20;99.90
31765;DHT22;18338;53.240;8.798;2023-04-01T23:01:24;2.10;99.90
31765;DHT22;18338;53.240;8.798;2023-04-01T23:03:52;2.10;99.90
31765;DHT22;18338;53.240;8.798;2023-04-01T23:06:24;2.10;99.90
31765;DHT22;18338;53.240;8.798;2023-04-01T23:09:08;2.00;99.90
31765;DHT22;18338;53.240;8.798;2023-04-01T23:20:05;2.00;99.90
31765;DHT22;18338;53.240;8.798;2023-04-01T23:33:11;1.60;99.90
31765;DHT22;18338;53.240;8.798;2023-04-01T23:38:24;1.40;99.90
31765;DHT22;18338;53.240;8.798;2023-04-01T23:40:53;1.40;99.90
31765;DHT22;18338;53.240;8.798;2023-04-01T23:43:33;1.40;99.90
31765;DHT22;18338;53.240;8.798;2023-04-01T23:46:02;1.40;99.90
31765;DHT22;18338;53.240;8.798;2023-04-01T23:48:37;1.40;99.90
31765;DHT22;18338;53.240;8.798;2023-04-01T23:51:22;1.30;99.90
31765;DHT22;18338;53.240;8.798;2023-04-01T23:54:19;1.30;99.90
31765;DHT22;18338;53.240;8.798;2023-04-01T23:56:46;1.20;99.90
31765;DHT22;18338;53.240;8.798;2023-04-01T23:59:17;1.10;99.90
